Terminal Aerodrome Forecast
Issued by NWS Raleigh/Durham, NC

Home | Current Version | Previous Version | Text Only | Print | Product List | Glossary On
Versions: 1 2 3 4 5 6 7 8 9 10 11 12 13 14 15 16 17 18 19 20 21 22 23 24 25 26 27 28 29 30 31 32 33 34 35 36 37 38 39 40
000
FTUS42 KRAH 012022 AAA
TAFGSO
TAF AMD
KGSO 012022Z 0120/0218 21012G18KT P6SM SCT025 BKN100
      TEMPO 0122/0124 BKN025
     FM020000 18008KT P6SM BKN025 OVC100
      TEMPO 0203/0206 6SM -RA BR OVC015
     FM020600 22013G23KT 3SM -RA OVC007
     FM021500 26012G28KT P6SM SCT050=

USA.gov is the U.S. government's official web portal to all federal, state and local government web resources and services.